createdAt,value
2023-05-02T00:01:52.073Z,93.40
2023-05-02T00:04:21.511Z,93.70
2023-05-02T00:06:49.324Z,93.60
2023-05-02T00:09:17.378Z,93.80
2023-05-02T00:11:45.081Z,94.10
2023-05-02T00:14:12.842Z,94.10
2023-05-02T00:16:40.634Z,94.40
2023-05-02T00:19:08.402Z,94.60
2023-05-02T00:21:37.475Z,94.80
2023-05-02T00:24:05.876Z,96.30
2023-05-02T00:26:34.769Z,97.70
2023-05-02T00:29:02.452Z,99.40
2023-05-02T00:31:30.274Z,99.90
2023-05-02T00:33:58.113Z,99.90
2023-05-02T00:36:27.335Z,99.90
2023-05-02T00:38:56.408Z,99.90
2023-05-02T00:41:24.109Z,99.90
2023-05-02T00:43:51.789Z,99.90
2023-05-02T00:46:19.660Z,99.90
2023-05-02T00:48:47.470Z,99.90
2023-05-02T00:51:15.267Z,99.90
2023-05-02T00:53:43.297Z,99.90
2023-05-02T00:56:12.651Z,99.90
2023-05-02T00:58:41.642Z,99.90
2023-05-02T01:01:34.715Z,99.90
2023-05-02T01:04:18.855Z,99.90
2023-05-02T01:06:58.568Z,99.90
2023-05-02T01:09:35.265Z,99.90
2023-05-02T01:12:11.359Z,99.90
2023-05-02T01:14:43.512Z,99.90
2023-05-02T01:17:14.740Z,99.90
2023-05-02T01:19:49.286Z,99.90
2023-05-02T01:22:18.135Z,99.90
2023-05-02T01:24:55.738Z,99.90
2023-05-02T01:27:35.466Z,99.90
2023-05-02T01:30:07.322Z,99.90
2023-05-02T01:32:38.280Z,99.90
2023-05-02T01:35:07.743Z,99.90
2023-05-02T01:37:36.165Z,99.90
2023-05-02T01:40:05.359Z,99.90
2023-05-02T01:42:34.873Z,99.90
2023-05-02T01:45:07.246Z,99.90
2023-05-02T01:47:37.336Z,99.90
2023-05-02T01:50:07.781Z,99.90
2023-05-02T01:52:35.860Z,99.90
2023-05-02T01:55:04.981Z,99.90
2023-05-02T01:57:33.454Z,99.90
2023-05-02T02:00:03.909Z,99.90
2023-05-02T02:02:36.646Z,99.90
2023-05-02T02:05:06.715Z,99.90
2023-05-02T02:07:34.751Z,99.90
2023-05-02T02:10:03.005Z,99.90
2023-05-02T02:12:37.542Z,99.90
2023-05-02T02:15:14.215Z,99.90
2023-05-02T02:17:48.909Z,99.90
2023-05-02T02:20:17.871Z,99.90
2023-05-02T02:22:46.755Z,99.90
2023-05-02T02:25:16.663Z,99.90
2023-05-02T02:27:44.652Z,99.90
2023-05-02T02:30:13.294Z,99.90
2023-05-02T02:32:41.082Z,99.90
2023-05-02T02:35:11.504Z,99.90
2023-05-02T02:37:46.763Z,99.90
2023-05-02T02:40:22.786Z,99.90
2023-05-02T02:42:56.823Z,99.90
2023-05-02T02:45:42.834Z,99.90
2023-05-02T02:48:20.341Z,99.90
2023-05-02T02:51:05.209Z,99.90
2023-05-02T02:53:39.802Z,99.90
2023-05-02T02:56:14.104Z,99.90
2023-05-02T02:58:48.773Z,99.90
2023-05-02T03:01:20.055Z,99.90
2023-05-02T03:03:49.145Z,99.90
2023-05-02T03:06:18.852Z,99.90
2023-05-02T03:08:46.701Z,99.90
2023-05-02T03:11:14.456Z,99.90
2023-05-02T03:13:42.167Z,99.90
2023-05-02T03:16:37.396Z,99.90
2023-05-02T03:19:06.803Z,99.90
2023-05-02T03:21:36.523Z,99.90
2023-05-02T03:24:05.883Z,99.90
2023-05-02T03:26:33.657Z,99.90
2023-05-02T03:29:01.402Z,99.90
2023-05-02T03:31:29.232Z,99.90
2023-05-02T03:33:57.069Z,99.90
2023-05-02T03:36:24.794Z,99.90
2023-05-02T03:38:53.832Z,99.90
2023-05-02T03:41:21.863Z,99.90
2023-05-02T03:43:49.567Z,99.90
2023-05-02T03:46:17.528Z,99.90
2023-05-02T03:48:46.364Z,99.90
2023-05-02T03:51:14.355Z,99.90
2023-05-02T03:53:42.156Z,99.90
2023-05-02T03:56:11.208Z,99.90
2023-05-02T03:58:38.985Z,99.90
2023-05-02T04:01:14.921Z,99.90
2023-05-02T04:03:42.970Z,99.90
2023-05-02T04:06:10.765Z,99.90
2023-05-02T04:08:38.675Z,99.90
2023-05-02T04:11:06.464Z,99.90
2023-05-02T04:13:35.569Z,99.90
2023-05-02T04:16:04.500Z,99.90
2023-05-02T04:18:32.478Z,99.90
2023-05-02T04:21:00.232Z,99.90
2023-05-02T04:23:27.956Z,99.90
2023-05-02T04:25:56.492Z,99.90
2023-05-02T04:28:24.601Z,99.90
2023-05-02T04:30:54.046Z,99.90
2023-05-02T04:33:21.825Z,99.90
2023-05-02T04:35:49.596Z,99.90
2023-05-02T04:38:17.567Z,99.90
2023-05-02T04:40:45.910Z,99.90
2023-05-02T04:43:13.698Z,99.90
2023-05-02T04:45:41.409Z,99.90
2023-05-02T04:48:10.494Z,99.90
2023-05-02T04:50:38.344Z,99.90
2023-05-02T04:53:06.297Z,99.90
2023-05-02T04:55:33.969Z,99.90
2023-05-02T04:58:01.707Z,99.90
2023-05-02T05:00:30.096Z,99.90
2023-05-02T05:02:59.253Z,99.90
2023-05-02T05:05:30.088Z,99.90
2023-05-02T05:07:57.861Z,99.90
2023-05-02T05:10:25.799Z,99.90
2023-05-02T05:12:53.968Z,99.90
2023-05-02T05:15:23.864Z,99.90
2023-05-02T05:17:51.699Z,99.90
2023-05-02T05:20:19.816Z,99.90
2023-05-02T05:22:49.041Z,99.90
2023-05-02T05:25:16.728Z,99.90
2023-05-02T05:27:44.500Z,99.90
2023-05-02T05:30:12.789Z,99.90
2023-05-02T05:32:40.633Z,99.90
2023-05-02T05:35:09.493Z,99.90
2023-05-02T05:37:39.365Z,99.90
2023-05-02T05:40:09.850Z,99.90
2023-05-02T05:42:37.580Z,99.90
2023-05-02T05:45:06.044Z,99.60
2023-05-02T05:47:33.971Z,99.20
2023-05-02T05:50:02.090Z,98.30
2023-05-02T05:52:30.123Z,97.50
2023-05-02T05:54:57.879Z,97.20
2023-05-02T05:57:27.100Z,97.20
2023-05-02T05:59:55.140Z,96.60
2023-05-02T06:02:22.921Z,96.30
2023-05-02T06:04:50.771Z,96.00
2023-05-02T06:07:18.494Z,96.00
2023-05-02T06:09:46.236Z,95.70
2023-05-02T06:12:16.251Z,95.60
2023-05-02T06:14:45.293Z,95.50
2023-05-02T06:17:13.136Z,95.70
2023-05-02T06:19:41.072Z,95.10
2023-05-02T06:22:08.789Z,95.00
2023-05-02T06:24:37.756Z,94.50
2023-05-02T06:27:05.612Z,94.10
2023-05-02T06:29:33.328Z,94.50
2023-05-02T06:32:02.446Z,94.60
2023-05-02T06:34:32.574Z,92.70
2023-05-02T06:37:00.486Z,91.60
2023-05-02T06:39:28.329Z,90.80
2023-05-02T06:41:58.188Z,87.40
2023-05-02T06:44:26.100Z,85.30
2023-05-02T06:46:55.550Z,82.60
2023-05-02T06:49:24.684Z,82.40
2023-05-02T06:51:52.493Z,81.50
2023-05-02T06:54:21.726Z,82.90
2023-05-02T06:56:49.501Z,81.00
2023-05-02T06:59:17.544Z,79.30
2023-05-02T07:01:45.465Z,78.80
2023-05-02T07:04:13.350Z,79.00
2023-05-02T07:06:42.693Z,78.40
2023-05-02T07:09:10.653Z,74.00
2023-05-02T07:11:38.437Z,68.50
2023-05-02T07:14:06.409Z,64.60
2023-05-02T07:16:34.249Z,62.80
2023-05-02T07:19:04.466Z,60.80
2023-05-02T07:21:32.338Z,61.50
2023-05-02T07:24:01.941Z,63.10
2023-05-02T07:26:29.746Z,65.10
2023-05-02T07:28:57.558Z,65.50
2023-05-02T07:31:25.408Z,67.00
2023-05-02T07:33:53.230Z,69.10
2023-05-02T07:36:21.331Z,71.60
2023-05-02T07:38:49.096Z,67.20
2023-05-02T07:41:18.253Z,61.10
2023-05-02T07:43:46.097Z,57.60
2023-05-02T07:46:13.829Z,54.80
2023-05-02T07:48:42.685Z,53.00
2023-05-02T07:51:11.698Z,51.10
2023-05-02T07:53:39.449Z,49.40
2023-05-02T07:56:08.733Z,47.90
2023-05-02T07:58:38.010Z,47.40
2023-05-02T08:01:07.607Z,46.30
2023-05-02T08:03:37.487Z,47.90
2023-05-02T08:06:07.393Z,47.90
2023-05-02T08:08:37.403Z,47.00
2023-05-02T08:11:07.468Z,45.60
2023-05-02T08:13:38.709Z,44.90
2023-05-02T08:16:09.249Z,43.70
2023-05-02T08:18:39.002Z,43.60
2023-05-02T08:21:09.245Z,44.20
2023-05-02T08:23:39.336Z,44.00
2023-05-02T08:26:09.830Z,43.10
2023-05-02T08:28:40.978Z,43.20
2023-05-02T08:31:10.533Z,42.90
2023-05-02T08:33:40.519Z,42.90
2023-05-02T08:36:17.666Z,42.50
2023-05-02T08:38:48.670Z,42.50
2023-05-02T08:41:19.870Z,41.50
2023-05-02T08:43:51.456Z,42.60
2023-05-02T08:46:25.342Z,44.90
2023-05-02T08:48:55.941Z,47.70
2023-05-02T08:51:26.584Z,49.50
2023-05-02T08:53:57.957Z,50.90
2023-05-02T08:56:27.758Z,52.20
2023-05-02T08:58:57.094Z,53.80
2023-05-02T09:01:29.645Z,54.70
2023-05-02T09:03:59.184Z,55.80
2023-05-02T09:06:28.041Z,55.90
2023-05-02T09:08:56.242Z,56.90
2023-05-02T09:11:24.028Z,57.50
2023-05-02T09:13:53.381Z,57.50
2023-05-02T09:16:24.054Z,58.70
2023-05-02T09:18:53.751Z,58.70
2023-05-02T09:21:23.494Z,58.20
2023-05-02T09:23:52.817Z,56.90
2023-05-02T09:26:22.049Z,55.80
2023-05-02T09:28:50.592Z,56.00
2023-05-02T09:31:43.574Z,56.30
2023-05-02T09:34:12.724Z,56.80
2023-05-02T09:36:42.010Z,55.80
2023-05-02T09:39:13.054Z,55.40
2023-05-02T09:41:41.720Z,56.10
2023-05-02T09:44:11.984Z,56.40
2023-05-02T09:46:43.755Z,56.70
2023-05-02T09:49:14.626Z,57.30
2023-05-02T09:51:43.970Z,57.50
2023-05-02T09:54:11.895Z,58.30
2023-05-02T09:56:54.063Z,58.80
2023-05-02T09:59:21.792Z,58.00
2023-05-02T10:01:57.474Z,58.50
2023-05-02T10:04:27.053Z,58.50
2023-05-02T10:06:56.268Z,59.70
2023-05-02T10:09:24.525Z,61.10
2023-05-02T10:11:54.023Z,62.20
2023-05-02T10:14:23.275Z,63.60
2023-05-02T10:17:00.946Z,64.40
2023-05-02T10:19:32.201Z,66.10
2023-05-02T10:22:00.251Z,67.00
2023-05-02T10:24:29.553Z,67.90
2023-05-02T10:26:57.546Z,67.30
2023-05-02T10:29:25.741Z,67.10
2023-05-02T10:31:54.460Z,67.40
2023-05-02T10:34:23.185Z,66.90
2023-05-02T10:36:52.309Z,67.90
2023-05-02T10:39:24.349Z,67.50
2023-05-02T10:41:55.061Z,66.40
2023-05-02T10:44:34.568Z,64.40
2023-05-02T10:47:02.854Z,62.40
2023-05-02T10:49:30.721Z,61.00
2023-05-02T10:51:59.916Z,60.80
2023-05-02T10:54:27.663Z,59.60
2023-05-02T10:57:13.169Z,57.00
2023-05-02T10:59:42.541Z,55.00
2023-05-02T11:02:44.465Z,53.70
2023-05-02T11:05:12.389Z,51.30
2023-05-02T11:07:42.563Z,49.60
2023-05-02T11:10:27.360Z,48.50
2023-05-02T11:12:56.215Z,46.60
2023-05-02T11:16:01.168Z,46.90
2023-05-02T11:18:48.968Z,47.70
2023-05-02T11:21:31.050Z,48.20
2023-05-02T11:24:35.885Z,46.90
2023-05-02T11:27:38.925Z,45.80
2023-05-02T11:30:09.872Z,45.50
2023-05-02T11:33:17.061Z,44.30
2023-05-02T11:35:46.602Z,43.30
2023-05-02T11:38:19.654Z,42.10
2023-05-02T11:40:58.853Z,42.80
2023-05-02T11:43:30.682Z,43.50
2023-05-02T11:46:02.118Z,44.90
2023-05-02T11:48:31.202Z,45.70
2023-05-02T11:51:03.358Z,47.00
2023-05-02T11:53:32.007Z,48.70
2023-05-02T11:56:01.521Z,49.30
2023-05-02T11:58:32.667Z,50.30
2023-05-02T12:01:14.056Z,50.60
2023-05-02T12:03:42.131Z,48.80
2023-05-02T12:06:12.428Z,49.50
2023-05-02T12:08:41.405Z,50.10
2023-05-02T12:11:09.341Z,49.80
2023-05-02T12:13:46.173Z,49.30
2023-05-02T12:16:15.745Z,48.90
2023-05-02T12:18:43.795Z,48.20
2023-05-02T12:21:11.802Z,47.00
2023-05-02T12:23:42.320Z,46.80
2023-05-02T12:26:21.155Z,45.30
2023-05-02T12:28:52.730Z,46.70
2023-05-02T12:31:22.429Z,46.90
2023-05-02T12:33:52.355Z,46.20
2023-05-02T12:36:20.601Z,45.80
2023-05-02T12:38:52.978Z,45.50
2023-05-02T12:41:30.989Z,47.00
2023-05-02T12:44:00.660Z,47.00
2023-05-02T12:46:30.080Z,46.70
2023-05-02T12:49:05.644Z,46.80
2023-05-02T12:51:34.388Z,46.00
2023-05-02T12:54:02.306Z,45.60
2023-05-02T12:56:32.383Z,45.30
2023-05-02T12:59:01.280Z,45.80
2023-05-02T13:01:31.519Z,46.10
2023-05-02T13:03:59.481Z,46.40
2023-05-02T13:06:28.040Z,46.20
2023-05-02T13:08:55.832Z,46.80
2023-05-02T13:11:24.469Z,46.40
2023-05-02T13:13:52.334Z,46.50
2023-05-02T13:16:20.111Z,46.10
2023-05-02T13:18:49.294Z,46.80
2023-05-02T13:21:17.241Z,47.10
2023-05-02T13:23:45.793Z,47.10
2023-05-02T13:26:13.511Z,47.60
2023-05-02T13:28:41.265Z,47.60
2023-05-02T13:31:09.140Z,47.10
2023-05-02T13:33:36.996Z,47.50
2023-05-02T13:36:06.588Z,47.50
2023-05-02T13:38:34.938Z,47.40
2023-05-02T13:41:02.848Z,46.60
2023-05-02T13:43:30.771Z,47.30
2023-05-02T13:45:58.850Z,47.00
2023-05-02T13:48:26.753Z,47.20
2023-05-02T13:50:54.550Z,47.40
2023-05-02T13:53:23.653Z,46.80
2023-05-02T13:55:51.827Z,46.10
2023-05-02T13:58:19.801Z,46.70
2023-05-02T14:00:47.633Z,46.20
2023-05-02T14:03:15.999Z,45.90
2023-05-02T14:05:44.035Z,46.20
2023-05-02T14:08:11.965Z,47.30
2023-05-02T14:10:41.285Z,46.80
2023-05-02T14:13:09.117Z,46.80
2023-05-02T14:15:37.604Z,46.50
2023-05-02T14:18:05.600Z,45.90
2023-05-02T14:20:33.389Z,46.80
2023-05-02T14:23:01.185Z,47.70
2023-05-02T14:25:28.964Z,47.80
2023-05-02T14:27:58.014Z,47.00
2023-05-02T14:30:25.904Z,44.80
2023-05-02T14:32:53.751Z,43.20
2023-05-02T14:35:21.780Z,43.50
2023-05-02T14:37:49.540Z,45.80
2023-05-02T14:40:17.605Z,47.00
2023-05-02T14:42:45.426Z,47.40
2023-05-02T14:45:14.564Z,46.80
2023-05-02T14:47:42.307Z,47.20
2023-05-02T14:50:10.932Z,47.10
2023-05-02T14:52:38.610Z,46.80
2023-05-02T14:55:07.261Z,46.90
2023-05-02T14:57:35.082Z,46.30
2023-05-02T15:00:04.818Z,46.20
2023-05-02T15:02:34.316Z,45.80
2023-05-02T15:05:02.958Z,45.60
2023-05-02T15:07:30.895Z,45.40
2023-05-02T15:09:58.725Z,44.80
2023-05-02T15:12:26.702Z,44.40
2023-05-02T15:14:54.405Z,44.40
2023-05-02T15:17:22.500Z,43.10
2023-05-02T15:19:51.644Z,43.10
2023-05-02T15:22:19.520Z,43.80
2023-05-02T15:24:47.637Z,43.20
2023-05-02T15:27:15.665Z,43.80
2023-05-02T15:29:43.411Z,44.00
2023-05-02T15:32:11.196Z,44.20
2023-05-02T15:34:41.122Z,45.80
2023-05-02T15:37:10.301Z,47.20
2023-05-02T15:39:38.176Z,48.40
2023-05-02T15:42:07.036Z,48.60
2023-05-02T15:44:36.458Z,49.60
2023-05-02T15:47:04.990Z,49.90
2023-05-02T15:49:33.424Z,51.30
2023-05-02T15:52:02.612Z,50.80
2023-05-02T15:54:32.726Z,51.20
2023-05-02T15:57:00.745Z,49.90
2023-05-02T15:59:30.566Z,50.00
2023-05-02T16:01:58.355Z,49.50
2023-05-02T16:04:27.699Z,49.60
2023-05-02T16:06:55.665Z,48.90
2023-05-02T16:09:23.688Z,49.70
2023-05-02T16:11:52.732Z,50.20
2023-05-02T16:14:23.792Z,50.80
2023-05-02T16:16:51.563Z,50.20
2023-05-02T16:19:19.335Z,50.70
2023-05-02T16:21:47.225Z,50.60
2023-05-02T16:24:15.056Z,50.30
2023-05-02T16:26:43.105Z,50.10
2023-05-02T16:29:12.125Z,50.90
2023-05-02T16:31:40.516Z,50.10
2023-05-02T16:34:09.524Z,49.30
2023-05-02T16:36:37.334Z,50.00
2023-05-02T16:39:05.240Z,49.40
2023-05-02T16:41:35.182Z,48.80
2023-05-02T16:44:03.177Z,49.50
2023-05-02T16:46:32.710Z,49.60
2023-05-02T16:49:00.542Z,49.60
2023-05-02T16:51:28.747Z,50.00
2023-05-02T16:53:56.627Z,50.50
2023-05-02T16:56:24.515Z,49.80
2023-05-02T16:58:52.352Z,49.80
2023-05-02T17:01:20.124Z,50.70
2023-05-02T17:03:49.246Z,51.00
2023-05-02T17:06:17.083Z,51.30
2023-05-02T17:08:45.540Z,52.00
2023-05-02T17:11:13.380Z,51.90
2023-05-02T17:13:42.278Z,52.80
2023-05-02T17:16:10.151Z,53.20
2023-05-02T17:18:38.199Z,53.30
2023-05-02T17:21:07.700Z,54.10
2023-05-02T17:23:35.474Z,53.80
2023-05-02T17:26:04.114Z,53.70
2023-05-02T17:28:31.894Z,53.90
2023-05-02T17:30:59.911Z,54.00
2023-05-02T17:33:28.101Z,54.00
2023-05-02T17:35:55.967Z,54.30
2023-05-02T17:38:26.591Z,54.50
2023-05-02T17:40:54.395Z,54.70
2023-05-02T17:43:22.145Z,54.80
2023-05-02T17:45:49.998Z,54.70
2023-05-02T17:48:18.816Z,54.70
2023-05-02T17:50:46.605Z,55.30
2023-05-02T17:53:15.378Z,55.60
2023-05-02T17:55:44.419Z,55.80
2023-05-02T17:58:12.116Z,55.60
2023-05-02T18:00:40.238Z,55.70
2023-05-02T18:03:08.216Z,55.00
2023-05-02T18:05:39.451Z,55.50
2023-05-02T18:08:07.696Z,55.40
2023-05-02T18:10:38.375Z,55.90
2023-05-02T18:13:07.430Z,55.60
2023-05-02T18:15:36.252Z,56.30
2023-05-02T18:18:04.253Z,56.80
2023-05-02T18:20:32.012Z,57.10
2023-05-02T18:23:01.233Z,57.30
2023-05-02T18:25:29.048Z,57.60
2023-05-02T18:27:56.830Z,57.60
2023-05-02T18:30:25.963Z,58.20
2023-05-02T18:32:53.700Z,58.00
2023-05-02T18:35:21.641Z,57.80
2023-05-02T18:37:49.422Z,57.30
2023-05-02T18:40:17.206Z,57.10
2023-05-02T18:42:44.982Z,57.30
2023-05-02T18:45:12.829Z,57.00
2023-05-02T18:47:41.997Z,57.30
2023-05-02T18:50:09.971Z,57.70
2023-05-02T18:52:37.816Z,57.70
2023-05-02T18:55:06.339Z,58.10
2023-05-02T18:57:34.560Z,58.30
2023-05-02T19:00:02.308Z,58.60
2023-05-02T19:02:30.099Z,59.00
2023-05-02T19:04:59.318Z,59.10
2023-05-02T19:07:27.709Z,59.00
2023-05-02T19:09:55.418Z,59.90
2023-05-02T19:12:23.267Z,60.10
2023-05-02T19:14:51.187Z,59.60
2023-05-02T19:17:18.987Z,59.90
2023-05-02T19:19:47.934Z,60.40
2023-05-02T19:22:17.018Z,60.40
2023-05-02T19:24:45.869Z,60.40
2023-05-02T19:27:13.700Z,60.80
2023-05-02T19:29:41.597Z,60.30
2023-05-02T19:32:09.749Z,59.90
2023-05-02T19:34:37.849Z,60.00
2023-05-02T19:37:05.572Z,60.10
2023-05-02T19:39:34.679Z,60.30
2023-05-02T19:42:02.988Z,60.60
2023-05-02T19:44:30.848Z,61.10
2023-05-02T19:46:58.716Z,60.90
2023-05-02T19:49:26.631Z,61.70
2023-05-02T19:51:54.349Z,62.10
2023-05-02T19:54:22.221Z,61.90
2023-05-02T19:56:51.250Z,62.10
2023-05-02T19:59:19.033Z,61.90
2023-05-02T20:01:47.093Z,62.00
2023-05-02T20:04:15.258Z,62.20
2023-05-02T20:06:43.450Z,62.00
2023-05-02T20:09:11.409Z,62.90
2023-05-02T20:11:39.208Z,63.00
2023-05-02T20:14:08.506Z,62.50
2023-05-02T20:16:36.367Z,63.10
2023-05-02T20:19:04.182Z,63.20
2023-05-02T20:21:32.338Z,63.00
2023-05-02T20:24:00.249Z,63.30
2023-05-02T20:26:31.148Z,63.70
2023-05-02T20:28:59.482Z,63.70
2023-05-02T20:31:28.539Z,64.70
2023-05-02T20:33:56.442Z,65.60
2023-05-02T20:36:24.382Z,65.60
2023-05-02T20:38:52.104Z,65.90
2023-05-02T20:41:20.197Z,66.10
2023-05-02T20:43:47.942Z,67.40
2023-05-02T20:46:17.035Z,68.80
2023-05-02T20:48:46.262Z,69.70
2023-05-02T20:51:14.133Z,70.80
2023-05-02T20:53:41.938Z,71.30
2023-05-02T20:56:09.671Z,72.20
2023-05-02T20:58:37.380Z,72.90
2023-05-02T21:01:05.605Z,73.30
2023-05-02T21:03:36.568Z,73.70
2023-05-02T21:06:05.991Z,74.50
2023-05-02T21:08:33.770Z,74.70
2023-05-02T21:11:01.571Z,74.80
2023-05-02T21:13:29.425Z,74.80
2023-05-02T21:15:57.200Z,75.20
2023-05-02T21:18:24.934Z,75.20
2023-05-02T21:20:52.644Z,75.40
2023-05-02T21:23:21.801Z,75.50
2023-05-02T21:25:49.508Z,77.30
2023-05-02T21:28:17.237Z,78.20
2023-05-02T21:30:45.046Z,78.60
2023-05-02T21:33:14.811Z,78.20
2023-05-02T21:35:42.575Z,78.30
2023-05-02T21:38:10.456Z,78.40
2023-05-02T21:40:40.762Z,78.50
2023-05-02T21:43:08.452Z,77.90
2023-05-02T21:45:43.756Z,78.40
2023-05-02T21:48:11.705Z,79.10
2023-05-02T21:50:40.416Z,79.00
2023-05-02T21:53:08.236Z,79.00
2023-05-02T21:55:37.506Z,78.80
2023-05-02T21:58:07.099Z,79.40
2023-05-02T22:00:35.036Z,79.60
2023-05-02T22:03:07.528Z,79.50
2023-05-02T22:05:35.738Z,80.00
2023-05-02T22:08:03.564Z,81.00
2023-05-02T22:10:31.832Z,81.00
2023-05-02T22:12:59.565Z,80.80
2023-05-02T22:15:28.729Z,80.80
2023-05-02T22:17:57.186Z,81.70
2023-05-02T22:20:26.505Z,81.80
2023-05-02T22:22:54.496Z,82.50
2023-05-02T22:25:22.490Z,81.70
2023-05-02T22:27:50.240Z,82.20
2023-05-02T22:30:18.209Z,83.00
2023-05-02T22:32:47.341Z,83.00
2023-05-02T22:35:15.099Z,83.40
2023-05-02T22:37:42.877Z,83.20
2023-05-02T22:40:12.513Z,83.70
2023-05-02T22:42:40.259Z,85.10
2023-05-02T22:45:09.220Z,84.70
2023-05-02T22:47:37.010Z,86.00
2023-05-02T22:50:10.629Z,85.70
2023-05-02T22:52:38.855Z,86.10
2023-05-02T22:55:09.239Z,86.90
2023-05-02T22:57:37.430Z,88.10
2023-05-02T23:00:07.071Z,86.90
2023-05-02T23:02:35.027Z,89.10
2023-05-02T23:05:03.232Z,88.20
2023-05-02T23:07:32.340Z,88.60
2023-05-02T23:10:00.235Z,88.10
2023-05-02T23:12:28.246Z,88.80
2023-05-02T23:14:56.781Z,88.00
2023-05-02T23:17:24.617Z,88.80
2023-05-02T23:19:52.342Z,88.80
2023-05-02T23:22:21.105Z,89.30
2023-05-02T23:24:50.269Z,89.10
2023-05-02T23:27:17.987Z,90.00
2023-05-02T23:29:48.694Z,90.00
2023-05-02T23:32:16.913Z,89.80
2023-05-02T23:34:44.957Z,89.80
2023-05-02T23:37:13.028Z,90.10
2023-05-02T23:39:41.051Z,90.10
2023-05-02T23:42:10.328Z,90.20
2023-05-02T23:44:38.059Z,90.40
2023-05-02T23:47:06.854Z,90.40
2023-05-02T23:49:34.720Z,90.50
2023-05-02T23:52:02.720Z,91.00
2023-05-02T23:54:31.880Z,91.30
2023-05-02T23:57:01.012Z,91.50
2023-05-02T23:59:30.056Z,91.30
